메인 페이지
METAR-TAF:

METAR-TAF

공항 :

Cleburne Municipal Airport

Cleburne, 텍사스, 미국

위도: 32-21-13N, 경도: 097-26-01W, 고도: 260m

현재 날씨관측

예보는 16분 전, 15:35시(UTC)에 발표되었습니다.
10kt
온도 18°C
습도 100%
기압 1018 hPa
시정: 4.8km
고도 3200ft 상공 구름 조금
고도 4000ft 상공 구름 보통
고도 5000ft 상공 구름 보통

METAR: KCPT 201535Z AUTO 01010KT 3SM RA FEW032 SCT040 SCT050 18/18 A3006 RMK AO2 LTG DSNT E-SW

시각: 10:51 (15:51 UTC)


TAF: 누락

4,000개 이상의 공항 관측 자료 및 예보 (METAR 및 TAF 보고).

지도상에서 검색 가능한 기상관측소가 노란 점과 빨간 점으로 표시되어 있습니다.

기상관측소 명을 보려면 표시 위로 마우스를 이동하세요.

날씨 관측과 예보를 보려면 클릭하세요.

지도 변경 : 확대하려면 엑스 표시가 있는 녹색 버튼, 축소하려면 빼기 표시가 있는 녹색 버튼, 다음 페이지의 지도를 보려면 녹색 화살표를 클릭하세요.


METAR-TAF: